Time;durP1;ratioP1;P1;durP2;ratioP2;P2;SDS_P1;SDS_P2;PMS_P1;PMS_P2;Temp;Humidity;BMP_temperature;BMP_pressure;BME280_temperature;BME280_humidity;BME280_pressure;Samples;Min_cycle;Max_cycle;Signal;HPM_P1;HPM_P2
2020/12/11 00:00:24;;;;;;;51.67;26.17;;;0.70;99.90;;;;;;5080692;28;20063;-74
2020/12/11 00:02:50;;;;;;;44.75;21.92;;;0.70;99.90;;;;;;5079467;28;20075;-73
2020/12/11 00:05:16;;;;;;;49.13;25.40;;;0.70;99.90;;;;;;5080573;28;20049;-74
2020/12/11 00:07:45;;;;;;;56.88;28.73;;;0.70;99.90;;;;;;5080013;28;20056;-73
2020/12/11 00:10:13;;;;;;;52.60;26.95;;;0.70;99.90;;;;;;5063246;28;20077;-74
2020/12/11 00:12:40;;;;;;;52.08;25.90;;;0.70;99.90;;;;;;5080160;28;20051;-73
2020/12/11 00:15:07;;;;;;;40.47;23.13;;;0.70;99.90;;;;;;5081219;28;20055;-73
2020/12/11 00:17:34;;;;;;;46.40;23.30;;;0.70;99.90;;;;;;5079543;28;20054;-73
2020/12/11 00:20:02;;;;;;;38.17;21.15;;;0.70;99.90;;;;;;5081597;28;20056;-74
2020/12/11 00:22:29;;;;;;;48.55;25.58;;;0.70;99.90;;;;;;5077352;28;20045;-73
2020/12/11 00:24:55;;;;;;;53.08;28.17;;;0.70;99.90;;;;;;5081389;28;20047;-74
2020/12/11 00:27:21;;;;;;;47.83;26.23;;;0.70;99.90;;;;;;5080427;28;20665;-73
2020/12/11 00:29:48;;;;;;;50.70;25.52;;;0.70;99.90;;;;;;5080501;28;20087;-73
2020/12/11 00:32:14;;;;;;;51.33;25.27;;;0.70;99.90;;;;;;5079202;28;20052;-73
2020/12/11 00:34:41;;;;;;;39.78;21.10;;;0.70;99.90;;;;;;5052222;28;20129;-74
2020/12/11 00:37:08;;;;;;;49.40;24.40;;;0.70;99.90;;;;;;5065642;28;20054;-73
2020/12/11 00:39:34;;;;;;;46.15;23.95;;;0.70;99.90;;;;;;5065455;28;20044;-74
2020/12/11 00:42:01;;;;;;;46.63;24.80;;;0.70;99.90;;;;;;5065353;28;20048;-74
2020/12/11 00:44:27;;;;;;;50.08;26.65;;;0.70;99.90;;;;;;5065727;28;20584;-74
2020/12/11 00:46:55;;;;;;;48.92;25.63;;;0.70;99.90;;;;;;5065210;28;20040;-74
2020/12/11 00:49:23;;;;;;;43.53;21.95;;;0.70;99.90;;;;;;5049881;28;20053;-74
2020/12/11 00:51:55;;;;;;;47.38;24.58;;;0.70;99.90;;;;;;5065272;28;20485;-74
2020/12/11 00:54:24;;;;;;;45.95;24.95;;;0.70;99.90;;;;;;5065953;28;20056;-74
2020/12/11 00:56:50;;;;;;;48.05;25.52;;;0.60;99.90;;;;;;5064498;28;20064;-74
2020/12/11 00:59:17;;;;;;;49.80;25.00;;;0.70;99.90;;;;;;5065290;28;20045;-73
2020/12/11 01:01:43;;;;;;;39.17;21.63;;;0.70;99.90;;;;;;5066286;28;20444;-73
2020/12/11 01:04:11;;;;;;;46.10;22.65;;;0.70;99.90;;;;;;5065514;28;20060;-73
2020/12/11 01:06:37;;;;;;;45.20;23.58;;;0.70;99.90;;;;;;5048273;28;20079;-73
2020/12/11 01:09:04;;;;;;;48.60;24.73;;;0.60;99.90;;;;;;5065516;28;20083;-74
2020/12/11 01:11:31;;;;;;;42.53;23.77;;;0.70;99.90;;;;;;5064987;28;20052;-73
2020/12/11 01:13:58;;;;;;;45.80;22.25;;;0.70;99.90;;;;;;5066354;28;20465;-73
2020/12/11 01:16:24;;;;;;;44.10;23.55;;;0.60;99.90;;;;;;5047231;28;20393;-73
2020/12/11 01:18:54;;;;;;;42.72;22.13;;;0.60;99.90;;;;;;5058022;28;20865;-73
2020/12/11 01:21:22;;;;;;;37.97;21.90;;;0.60;99.90;;;;;;5066201;28;20045;-74
2020/12/11 01:23:48;;;;;;;49.97;25.70;;;0.60;99.90;;;;;;5065236;28;20052;-74
2020/12/11 01:26:14;;;;;;;47.40;24.65;;;0.60;99.90;;;;;;5066339;28;20110;-74
2020/12/11 01:28:41;;;;;;;39.88;19.88;;;0.70;99.90;;;;;;5048607;28;20037;-73
2020/12/11 01:31:07;;;;;;;52.13;25.67;;;0.70;99.90;;;;;;5063568;28;20735;-74
2020/12/11 01:33:34;;;;;;;40.10;21.08;;;0.60;99.90;;;;;;5065462;28;20133;-74
2020/12/11 01:36:00;;;;;;;48.78;24.70;;;0.60;99.90;;;;;;5066121;28;20044;-74
2020/12/11 01:38:26;;;;;;;52.17;25.73;;;0.60;99.90;;;;;;5065979;28;20056;-74
2020/12/11 01:40:52;;;;;;;51.55;25.17;;;0.70;99.90;;;;;;5066819;28;20064;-75
2020/12/11 01:43:20;;;;;;;56.85;27.75;;;0.70;99.90;;;;;;5066275;28;20052;-74
2020/12/11 01:45:47;;;;;;;44.30;23.90;;;0.60;99.90;;;;;;5062596;28;20066;-74
2020/12/11 01:48:15;;;;;;;30.48;19.08;;;0.60;99.90;;;;;;5065937;28;20517;-74
2020/12/11 01:50:42;;;;;;;51.50;26.52;;;0.60;99.90;;;;;;5066433;28;20049;-74
2020/12/11 01:53:09;;;;;;;57.75;28.55;;;0.60;99.90;;;;;;5064836;28;20048;-75
2020/12/11 01:55:40;;;;;;;51.35;26.25;;;0.60;99.90;;;;;;5064277;28;20083;-74
2020/12/11 01:58:13;;;;;;;54.55;29.20;;;0.60;99.90;;;;;;5064230;28;20059;-74
2020/12/11 02:00:42;;;;;;;56.42;27.67;;;0.70;99.90;;;;;;5047174;28;20611;-74
2020/12/11 02:03:10;;;;;;;54.20;29.35;;;0.70;99.90;;;;;;5063901;28;20070;-75
2020/12/11 02:05:37;;;;;;;45.03;25.05;;;0.70;99.90;;;;;;5064619;28;20044;-74
2020/12/11 02:08:04;;;;;;;59.95;27.00;;;0.60;99.90;;;;;;5062811;28;20052;-74
2020/12/11 02:10:32;;;;;;;51.35;27.38;;;0.60;99.90;;;;;;5063551;28;20044;-73
2020/12/11 02:13:05;;;;;;;54.47;26.10;;;0.60;99.90;;;;;;5066247;28;20595;-74
2020/12/11 02:15:32;;;;;;;47.65;23.70;;;0.60;99.90;;;;;;5063890;28;20048;-74
2020/12/11 02:17:58;;;;;;;52.30;27.13;;;0.60;99.90;;;;;;5064354;28;20199;-74
2020/12/11 02:20:25;;;;;;;53.17;26.17;;;0.60;99.90;;;;;;5063533;28;20076;-74
2020/12/11 02:22:51;;;;;;;53.47;26.50;;;0.60;99.90;;;;;;5046740;28;20044;-74
2020/12/11 02:25:18;;;;;;;57.22;26.98;;;0.60;99.90;;;;;;5062668;28;20095;-74
2020/12/11 02:27:48;;;;;;;54.17;27.13;;;0.60;99.90;;;;;;5064932;28;20048;-74
2020/12/11 02:30:15;;;;;;;54.25;25.05;;;0.70;99.90;;;;;;5080605;28;20044;-74
2020/12/11 02:32:41;;;;;;;57.97;30.48;;;0.70;99.90;;;;;;5080726;28;20531;-74
2020/12/11 02:35:08;;;;;;;49.95;25.88;;;0.70;99.90;;;;;;5063248;28;20175;-74
2020/12/11 02:37:36;;;;;;;56.00;25.83;;;0.70;99.90;;;;;;5064929;28;20087;-74
2020/12/11 02:40:05;;;;;;;51.17;26.80;;;0.70;99.90;;;;;;5046344;28;20051;-74
2020/12/11 02:42:31;;;;;;;52.00;26.85;;;0.60;99.90;;;;;;5063795;28;20045;-74
2020/12/11 02:44:58;;;;;;;48.13;24.33;;;0.60;99.90;;;;;;5035285;28;20045;-74
2020/12/11 02:47:25;;;;;;;44.38;23.30;;;0.70;99.90;;;;;;5057984;28;20051;-74
2020/12/11 02:49:51;;;;;;;49.05;24.65;;;0.70;99.90;;;;;;5064546;28;20707;-74
2020/12/11 02:52:18;;;;;;;41.75;22.42;;;0.60;99.90;;;;;;5046898;28;20433;-74
2020/12/11 02:54:46;;;;;;;39.78;20.20;;;0.60;99.90;;;;;;5064940;28;20056;-74
2020/12/11 02:57:13;;;;;;;37.47;21.90;;;0.60;99.90;;;;;;5062325;28;20084;-74
2020/12/11 02:59:39;;;;;;;43.30;21.85;;;0.60;99.90;;;;;;5046917;28;20079;-74
2020/12/11 03:02:06;;;;;;;51.90;26.20;;;0.60;99.90;;;;;;5063589;28;20050;-75
2020/12/11 03:04:32;;;;;;;42.58;23.30;;;0.60;99.90;;;;;;5030552;28;20079;-74
2020/12/11 03:06:59;;;;;;;39.83;22.67;;;0.60;99.90;;;;;;5064673;28;20075;-74
2020/12/11 03:09:25;;;;;;;41.60;21.88;;;0.60;99.90;;;;;;5062158;28;20044;-74
2020/12/11 03:11:51;;;;;;;41.20;24.58;;;0.70;99.90;;;;;;5078593;28;20135;-74
2020/12/11 03:14:18;;;;;;;36.83;21.08;;;0.70;99.90;;;;;;5063242;28;20052;-74
2020/12/11 03:16:44;;;;;;;38.63;21.67;;;0.70;99.90;;;;;;5062299;28;20137;-74
2020/12/11 03:19:10;;;;;;;42.55;23.70;;;0.70;99.90;;;;;;5061522;28;20515;-74
2020/12/11 03:21:37;;;;;;;41.17;24.02;;;0.60;99.90;;;;;;5063271;28;20515;-74
2020/12/11 03:24:03;;;;;;;42.20;22.52;;;0.70;99.90;;;;;;5063733;28;20421;-74
2020/12/11 03:26:29;;;;;;;35.00;20.17;;;0.70;99.90;;;;;;5045783;28;20743;-74
2020/12/11 03:28:55;;;;;;;41.83;22.45;;;0.70;99.90;;;;;;5063931;28;20666;-74
2020/12/11 03:31:22;;;;;;;41.15;22.80;;;0.70;99.90;;;;;;5063686;28;20142;-74
2020/12/11 03:33:48;;;;;;;37.05;21.95;;;0.70;99.90;;;;;;5046622;28;20048;-75
2020/12/11 03:36:20;;;;;;;35.83;21.08;;;0.70;99.90;;;;;;5063512;28;20044;-74
2020/12/11 03:38:48;;;;;;;42.50;22.55;;;0.80;99.90;;;;;;5063894;28;20090;-75
2020/12/11 03:41:16;;;;;;;30.35;17.38;;;0.80;99.90;;;;;;5045052;28;20064;-75
2020/12/11 03:43:43;;;;;;;34.80;20.00;;;0.80;99.90;;;;;;5062364;28;20052;-74
2020/12/11 03:46:17;;;;;;;31.55;19.42;;;0.80;99.90;;;;;;5062783;28;20144;-74
2020/12/11 03:48:44;;;;;;;39.53;20.85;;;0.70;99.90;;;;;;5045081;28;20144;-74
2020/12/11 03:51:16;;;;;;;40.58;22.50;;;0.80;99.90;;;;;;5070833;28;20044;-74
2020/12/11 03:53:42;;;;;;;39.92;23.77;;;0.80;99.90;;;;;;5085013;28;20143;-74
2020/12/11 03:56:08;;;;;;;35.33;21.15;;;0.80;99.90;;;;;;5067170;28;20096;-74
2020/12/11 03:58:34;;;;;;;31.27;18.88;;;0.90;99.90;;;;;;5062298;28;20059;-73
2020/12/11 04:01:01;;;;;;;34.20;22.02;;;0.90;99.90;;;;;;5060785;28;20159;-74
2020/12/11 04:03:27;;;;;;;43.00;24.23;;;0.90;99.90;;;;;;5063191;28;20401;-74
2020/12/11 04:05:53;;;;;;;42.42;23.40;;;0.90;99.90;;;;;;5079145;28;20044;-74
2020/12/11 04:08:20;;;;;;;36.55;21.08;;;0.80;99.90;;;;;;5064794;28;20056;-74
2020/12/11 04:10:46;;;;;;;40.97;22.13;;;0.90;99.90;;;;;;5066261;28;20078;-74
2020/12/11 04:13:12;;;;;;;29.55;18.58;;;0.90;99.90;;;;;;5067130;28;20131;-74
2020/12/11 04:15:39;;;;;;;35.88;20.60;;;0.90;99.90;;;;;;5061816;28;20769;-74
2020/12/11 04:18:05;;;;;;;37.63;23.20;;;0.90;99.90;;;;;;5078318;28;20048;-74
2020/12/11 04:20:32;;;;;;;31.38;18.55;;;0.90;99.90;;;;;;5085310;28;20131;-75
2020/12/11 04:22:58;;;;;;;36.05;21.60;;;0.90;99.90;;;;;;5079683;28;20040;-74
2020/12/11 04:25:24;;;;;;;40.45;23.70;;;1.00;99.90;;;;;;5065979;28;20051;-74
2020/12/11 04:27:51;;;;;;;33.92;19.42;;;0.90;99.90;;;;;;5067132;28;20414;-74
2020/12/11 04:30:17;;;;;;;31.80;19.38;;;0.90;99.90;;;;;;5064937;28;20624;-73
2020/12/11 04:32:43;;;;;;;32.65;21.15;;;0.90;99.90;;;;;;5065805;28;20060;-74
2020/12/11 04:35:09;;;;;;;31.73;20.63;;;1.00;99.90;;;;;;5066484;28;20148;-73
2020/12/11 04:37:36;;;;;;;35.90;21.05;;;1.00;99.90;;;;;;5066261;28;20143;-73
2020/12/11 04:40:02;;;;;;;35.17;21.25;;;1.00;99.90;;;;;;5066473;28;20131;-74
2020/12/11 04:42:34;;;;;;;37.72;22.90;;;1.00;99.90;;;;;;5065298;28;20048;-74
2020/12/11 04:45:00;;;;;;;37.35;21.73;;;1.00;99.90;;;;;;5065323;28;20555;-74
2020/12/11 04:47:27;;;;;;;34.80;21.90;;;1.10;99.90;;;;;;5071600;28;20509;-74
2020/12/11 04:49:54;;;;;;;29.23;18.80;;;1.10;99.90;;;;;;5053248;28;20086;-74
2020/12/11 04:52:27;;;;;;;34.28;21.90;;;1.10;99.90;;;;;;5083994;28;20171;-74
2020/12/11 04:54:57;;;;;;;36.78;22.85;;;1.10;99.90;;;;;;5066021;28;20220;-74
2020/12/11 04:57:26;;;;;;;33.63;20.15;;;1.10;99.90;;;;;;5046824;28;20161;-74
2020/12/11 04:59:52;;;;;;;37.88;22.95;;;1.10;99.90;;;;;;5046798;28;20090;-74
2020/12/11 05:02:19;;;;;;;31.63;19.73;;;1.20;99.90;;;;;;5044546;28;20132;-74
2020/12/11 05:04:45;;;;;;;40.53;23.88;;;1.10;99.90;;;;;;5047568;28;20076;-74
2020/12/11 05:07:12;;;;;;;32.22;20.73;;;1.20;99.90;;;;;;5051316;28;20051;-75
2020/12/11 05:09:40;;;;;;;35.88;19.52;;;1.20;99.90;;;;;;5065727;28;20048;-74
2020/12/11 05:12:14;;;;;;;35.78;22.88;;;1.20;99.90;;;;;;5064821;28;20044;-74
2020/12/11 05:14:41;;;;;;;38.70;23.53;;;1.20;99.90;;;;;;5065234;28;20079;-75
2020/12/11 05:17:07;;;;;;;32.67;20.85;;;1.20;99.90;;;;;;5050890;28;20043;-74
2020/12/11 05:19:49;;;;;;;35.55;22.23;;;1.30;99.90;;;;;;5065429;28;20036;-74
2020/12/11 05:22:16;;;;;;;29.50;20.25;;;1.30;99.90;;;;;;5081763;28;20057;-74
2020/12/11 05:24:45;;;;;;;35.15;21.75;;;1.20;99.90;;;;;;5082169;28;20040;-74
2020/12/11 05:27:31;;;;;;;34.83;22.80;;;1.20;99.90;;;;;;5064615;28;20082;-75
2020/12/11 05:30:07;;;;;;;36.13;22.92;;;1.30;99.90;;;;;;5064885;28;20040;-74
2020/12/11 05:32:38;;;;;;;31.65;20.35;;;1.30;99.90;;;;;;5066273;28;20143;-74
2020/12/11 05:35:18;;;;;;;31.75;21.15;;;1.30;99.90;;;;;;5066283;28;20442;-73
2020/12/11 05:37:49;;;;;;;22.92;17.42;;;1.30;99.90;;;;;;5065966;28;20060;-75
2020/12/11 05:40:18;;;;;;;34.13;22.25;;;1.20;99.90;;;;;;5098868;28;20060;-74
2020/12/11 05:43:10;;;;;;;29.33;19.98;;;1.30;99.90;;;;;;5065514;28;20054;-74
2020/12/11 05:45:57;;;;;;;32.97;20.77;;;1.30;99.90;;;;;;5051471;28;20127;-74
2020/12/11 05:48:24;;;;;;;36.70;22.83;;;1.30;99.90;;;;;;5064058;28;20041;-74
2020/12/11 05:50:51;;;;;;;31.25;21.80;;;1.30;99.90;;;;;;5047678;28;20040;-74
2020/12/11 05:53:18;;;;;;;29.08;20.88;;;1.20;99.90;;;;;;5081980;28;20091;-74
2020/12/11 05:55:45;;;;;;;27.27;19.15;;;1.30;99.90;;;;;;5047262;28;20064;-74
2020/12/11 05:58:12;;;;;;;26.67;19.33;;;1.30;99.90;;;;;;5066285;28;20048;-75
2020/12/11 06:00:40;;;;;;;31.48;20.92;;;1.30;99.90;;;;;;5047650;28;20457;-75
2020/12/11 06:03:07;;;;;;;25.88;19.00;;;1.40;99.90;;;;;;5046668;28;20060;-75
2020/12/11 06:05:40;;;;;;;24.38;18.42;;;1.40;99.90;;;;;;5047384;28;20064;-73
2020/12/11 06:08:11;;;;;;;25.42;19.05;;;1.40;99.90;;;;;;5047646;28;20048;-74
2020/12/11 06:10:41;;;;;;;28.15;19.80;;;1.30;99.90;;;;;;5063229;28;20056;-74
2020/12/11 06:13:08;;;;;;;32.55;22.77;;;1.30;99.90;;;;;;5064544;28;20421;-74
2020/12/11 06:15:44;;;;;;;29.58;20.30;;;1.30;99.90;;;;;;5062774;28;20052;-74
2020/12/11 06:18:17;;;;;;;26.20;19.60;;;1.40;99.90;;;;;;5062721;28;20493;-74
2020/12/11 06:20:52;;;;;;;33.70;22.40;;;1.30;99.90;;;;;;5086482;28;20052;-74
2020/12/11 06:23:22;;;;;;;31.70;22.33;;;1.30;99.90;;;;;;5064957;28;20135;-74
2020/12/11 06:25:51;;;;;;;29.15;22.05;;;1.30;99.90;;;;;;5062473;28;20052;-74
2020/12/11 06:28:38;;;;;;;28.95;20.15;;;1.30;99.90;;;;;;5062890;28;20044;-73
2020/12/11 06:31:10;;;;;;;29.10;21.67;;;1.40;99.90;;;;;;5061958;28;20059;-74
2020/12/11 06:33:38;;;;;;;27.45;19.77;;;1.30;99.90;;;;;;5080472;28;20060;-74
2020/12/11 06:36:06;;;;;;;34.45;23.02;;;1.30;99.90;;;;;;5079691;28;20078;-74
2020/12/11 06:38:42;;;;;;;27.13;19.23;;;1.30;99.90;;;;;;5063068;28;20102;-74
2020/12/11 06:41:09;;;;;;;31.15;20.90;;;1.30;99.90;;;;;;5062431;28;20179;-74
2020/12/11 06:43:44;;;;;;;33.67;22.17;;;1.40;99.90;;;;;;5064868;28;20136;-74
2020/12/11 06:46:23;;;;;;;33.75;23.02;;;1.40;99.90;;;;;;5063187;28;20141;-74
2020/12/11 06:49:12;;;;;;;33.90;21.48;;;1.40;99.90;;;;;;5063715;28;20044;-74
2020/12/11 06:51:44;;;;;;;35.17;20.65;;;1.40;99.90;;;;;;5062701;28;20040;-74
2020/12/11 06:54:11;;;;;;;33.22;22.10;;;1.40;99.90;;;;;;5046101;28;20052;-74
2020/12/11 06:56:43;;;;;;;34.17;21.80;;;1.30;99.90;;;;;;5062647;28;20059;-73
2020/12/11 06:59:23;;;;;;;30.80;20.70;;;1.40;99.90;;;;;;5061620;28;20056;-73
2020/12/11 07:02:03;;;;;;;30.88;22.23;;;1.40;99.90;;;;;;5061428;28;20040;-74
2020/12/11 07:04:43;;;;;;;27.67;20.00;;;1.40;99.90;;;;;;5061560;28;20126;-73
2020/12/11 07:07:10;;;;;;;28.52;20.60;;;1.40;99.90;;;;;;5045046;28;20052;-73
2020/12/11 07:09:41;;;;;;;30.92;20.10;;;1.40;99.90;;;;;;5045963;28;20059;-74
2020/12/11 07:12:08;;;;;;;32.05;22.15;;;1.40;99.90;;;;;;5063516;28;20135;-73
2020/12/11 07:14:34;;;;;;;30.67;21.70;;;1.30;99.90;;;;;;5046539;28;20049;-74
2020/12/11 07:17:01;;;;;;;33.38;22.77;;;1.40;99.90;;;;;;5061935;28;20413;-74
2020/12/11 07:19:37;;;;;;;31.55;21.92;;;1.40;99.90;;;;;;5078281;28;20243;-73
2020/12/11 07:22:05;;;;;;;30.60;22.15;;;1.40;99.90;;;;;;5076424;28;20053;-73
2020/12/11 07:24:35;;;;;;;35.25;23.15;;;1.40;99.90;;;;;;5062918;28;20064;-74
2020/12/11 07:27:06;;;;;;;37.28;23.75;;;1.40;99.90;;;;;;5061107;28;20052;-74
2020/12/11 07:29:33;;;;;;;23.95;17.00;;;1.50;99.90;;;;;;5064701;28;20032;-74
2020/12/11 07:31:59;;;;;;;33.25;23.73;;;1.40;99.90;;;;;;5063020;28;20114;-74
2020/12/11 07:34:28;;;;;;;31.38;22.23;;;1.40;99.90;;;;;;5064141;28;20140;-74
2020/12/11 07:36:57;;;;;;;30.05;20.33;;;1.40;99.90;;;;;;5046338;28;20208;-74
2020/12/11 07:39:28;;;;;;;33.58;22.73;;;1.40;99.90;;;;;;5063630;28;20074;-74
2020/12/11 07:41:56;;;;;;;33.70;20.42;;;1.40;99.90;;;;;;5046541;28;20167;-74
2020/12/11 07:44:30;;;;;;;27.60;20.73;;;1.30;99.90;;;;;;5066702;28;20405;-75
2020/12/11 07:47:16;;;;;;;30.10;21.00;;;1.40;99.90;;;;;;5067219;28;20044;-74
2020/12/11 07:49:47;;;;;;;28.83;18.48;;;1.40;99.90;;;;;;5067482;28;20063;-75
2020/12/11 07:52:22;;;;;;;33.10;21.15;;;1.30;99.90;;;;;;5067768;28;20200;-73
2020/12/11 07:54:48;;;;;;;33.47;21.63;;;1.40;99.90;;;;;;5069411;28;20120;-73
2020/12/11 07:57:17;;;;;;;33.88;19.55;;;1.40;99.90;;;;;;5066327;28;20036;-74
2020/12/11 07:59:58;;;;;;;35.45;22.30;;;1.40;99.90;;;;;;5067586;28;20613;-74
2020/12/11 08:02:26;;;;;;;29.63;19.75;;;1.40;99.90;;;;;;5065529;28;20098;-74
2020/12/11 08:04:52;;;;;;;29.52;21.85;;;1.40;99.90;;;;;;5050731;28;20028;-74
2020/12/11 08:07:27;;;;;;;31.60;22.70;;;1.40;99.90;;;;;;5051588;28;20459;-75
2020/12/11 08:09:54;;;;;;;34.75;22.75;;;1.50;99.90;;;;;;5068148;28;20508;-74
2020/12/11 08:12:22;;;;;;;38.97;24.90;;;1.50;99.90;;;;;;5099854;28;20067;-74
2020/12/11 08:14:48;;;;;;;35.42;24.83;;;1.50;99.90;;;;;;5068274;28;20136;-73
2020/12/11 08:17:20;;;;;;;32.70;23.25;;;1.50;99.90;;;;;;5061626;28;20037;-74
2020/12/11 08:20:00;;;;;;;34.42;23.35;;;1.50;99.90;;;;;;5065768;28;20103;-73
2020/12/11 08:22:34;;;;;;;37.67;26.35;;;1.50;99.90;;;;;;5067379;28;20062;-73
2020/12/11 08:25:15;;;;;;;39.25;24.50;;;1.60;99.90;;;;;;5066769;28;20048;-74
2020/12/11 08:27:42;;;;;;;33.53;21.40;;;1.60;99.90;;;;;;5056586;28;20052;-74
2020/12/11 08:30:13;;;;;;;27.90;18.75;;;1.60;99.90;;;;;;5078728;28;20584;-73
2020/12/11 08:32:40;;;;;;;31.48;20.33;;;1.60;99.90;;;;;;5075813;28;20056;-74
2020/12/11 08:35:22;;;;;;;35.03;23.95;;;1.50;99.90;;;;;;5073739;28;20108;-74
2020/12/11 08:38:02;;;;;;;34.75;23.33;;;1.50;99.90;;;;;;5080792;28;20161;-74
2020/12/11 08:40:29;;;;;;;38.00;25.42;;;1.60;99.90;;;;;;5056125;28;20131;-74
2020/12/11 08:43:24;;;;;;;40.75;24.58;;;1.60;99.90;;;;;;5069157;28;20088;-76
2020/12/11 08:51:39;;;;;;;38.75;25.13;;;1.60;99.90;;;;;;5065675;28;20052;-74
2020/12/11 08:54:08;;;;;;;34.95;22.85;;;1.60;99.90;;;;;;5050130;28;20142;-74
2020/12/11 08:56:45;;;;;;;40.75;26.55;;;1.70;99.90;;;;;;5070335;28;20071;-73
2020/12/11 08:59:12;;;;;;;38.13;23.50;;;1.70;99.90;;;;;;5051585;28;20053;-74
2020/12/11 09:01:42;;;;;;;42.22;26.40;;;1.80;99.90;;;;;;5082698;28;20059;-76
2020/12/11 09:04:09;;;;;;;42.17;25.90;;;1.80;99.90;;;;;;5075195;28;20044;-76
2020/12/11 09:06:35;;;;;;;40.92;24.33;;;1.80;99.90;;;;;;5062256;28;20157;-76
2020/12/11 09:09:02;;;;;;;42.58;26.83;;;1.80;99.90;;;;;;5066884;28;20076;-76
2020/12/11 09:11:30;;;;;;;42.33;25.98;;;1.90;99.90;;;;;;5087690;28;20044;-77
2020/12/11 09:13:56;;;;;;;33.97;23.17;;;2.00;99.90;;;;;;5084420;28;20157;-78
2020/12/11 09:16:23;;;;;;;35.67;23.10;;;1.90;99.90;;;;;;5082706;28;20080;-77
2020/12/11 09:18:49;;;;;;;33.55;23.67;;;1.90;99.90;;;;;;5084597;28;20056;-76
2020/12/11 09:21:15;;;;;;;37.63;24.77;;;2.00;99.90;;;;;;5099705;28;20049;-75
2020/12/11 09:23:42;;;;;;;40.83;25.67;;;2.00;99.90;;;;;;5087715;28;20419;-76
2020/12/11 09:26:08;;;;;;;38.72;25.92;;;2.00;99.90;;;;;;5068186;28;20048;-77
2020/12/11 09:28:35;;;;;;;43.65;24.38;;;2.00;99.90;;;;;;5051718;28;20036;-76
2020/12/11 09:31:01;;;;;;;39.90;25.98;;;2.00;99.90;;;;;;5065322;28;20657;-77
2020/12/11 09:33:30;;;;;;;49.13;27.10;;;2.10;99.90;;;;;;5049131;28;20059;-77
2020/12/11 09:35:56;;;;;;;36.15;25.63;;;2.20;99.90;;;;;;5052171;28;20071;-77
2020/12/11 09:38:23;;;;;;;39.45;24.45;;;2.20;99.90;;;;;;5050300;28;20524;-76
2020/12/11 09:40:53;;;;;;;35.88;23.35;;;2.30;99.90;;;;;;5067139;28;20075;-76
2020/12/11 09:43:42;;;;;;;32.85;22.10;;;2.30;99.90;;;;;;5033682;28;20040;-76
2020/12/11 09:46:25;;;;;;;36.25;23.85;;;2.30;99.90;;;;;;5064427;28;20041;-77
2020/12/11 09:49:06;;;;;;;39.08;25.05;;;2.30;99.90;;;;;;5049019;28;20059;-76
2020/12/11 09:51:50;;;;;;;40.95;26.02;;;2.40;99.90;;;;;;5047986;28;20509;-76
2020/12/11 09:56:43;;;;;;;35.42;22.80;;;2.40;99.90;;;;;;5061954;28;20401;-76
2020/12/11 09:59:17;;;;;;;37.95;25.73;;;2.40;99.90;;;;;;5065702;28;20076;-76
2020/12/11 10:01:57;;;;;;;29.73;21.15;;;2.40;99.90;;;;;;5079860;28;20163;-77
2020/12/11 10:04:24;;;;;;;46.03;28.05;;;2.50;99.90;;;;;;5064876;28;20040;-76
2020/12/11 10:06:51;;;;;;;43.80;28.90;;;2.60;99.90;;;;;;5064623;28;20122;-76
2020/12/11 10:09:17;;;;;;;36.67;24.98;;;2.70;99.90;;;;;;5064397;28;20066;-76
2020/12/11 10:11:43;;;;;;;38.05;23.40;;;2.60;99.90;;;;;;5047958;28;20427;-76
2020/12/11 10:16:42;;;;;;;33.00;23.27;;;2.40;99.90;;;;;;5063969;28;20502;-75
2020/12/11 10:19:10;;;;;;;45.63;27.55;;;2.40;99.90;;;;;;5063391;28;20048;-77
2020/12/11 10:21:37;;;;;;;45.33;29.20;;;2.50;99.90;;;;;;5030368;28;20072;-78
2020/12/11 10:24:03;;;;;;;43.17;25.80;;;2.50;99.90;;;;;;5064317;28;20063;-76
2020/12/11 10:26:29;;;;;;;44.88;27.17;;;2.60;99.90;;;;;;5065389;28;20645;-76
2020/12/11 10:28:56;;;;;;;40.97;27.40;;;2.60;99.90;;;;;;5047768;28;20095;-76
2020/12/11 10:31:28;;;;;;;39.67;24.92;;;2.60;99.90;;;;;;5091008;28;20059;-76
2020/12/11 10:33:55;;;;;;;46.00;29.77;;;2.50;99.90;;;;;;5063494;28;20059;-77
2020/12/11 10:36:29;;;;;;;45.78;28.77;;;2.60;99.90;;;;;;5064575;28;20139;-76
2020/12/11 10:38:55;;;;;;;45.22;29.08;;;2.60;99.90;;;;;;5063881;28;20368;-76
2020/12/11 10:41:22;;;;;;;49.60;28.48;;;2.60;99.90;;;;;;5064285;28;20055;-77
2020/12/11 10:43:50;;;;;;;39.22;25.25;;;2.60;99.90;;;;;;5064539;28;20106;-76
2020/12/11 10:46:17;;;;;;;49.08;29.27;;;2.60;99.90;;;;;;5063519;28;20095;-78
2020/12/11 10:48:43;;;;;;;47.13;29.08;;;2.70;99.90;;;;;;5064848;28;20731;-76
2020/12/11 10:51:11;;;;;;;44.22;28.05;;;2.70;99.90;;;;;;5063220;28;20135;-76
2020/12/11 10:53:43;;;;;;;43.10;25.83;;;2.70;99.90;;;;;;5046730;28;20064;-76
2020/12/11 10:56:10;;;;;;;52.75;29.27;;;2.60;99.90;;;;;;5063351;28;20056;-76
2020/12/11 10:58:37;;;;;;;48.03;28.98;;;2.60;99.90;;;;;;5064055;28;20248;-76
2020/12/11 11:01:05;;;;;;;48.65;30.08;;;2.60;99.90;;;;;;5043830;28;20062;-76
2020/12/11 11:03:33;;;;;;;49.95;30.30;;;2.70;99.90;;;;;;5063351;28;20094;-77
2020/12/11 11:06:04;;;;;;;51.17;29.50;;;2.70;99.90;;;;;;5063512;28;20202;-76
2020/12/11 11:08:42;;;;;;;48.00;29.65;;;2.80;99.90;;;;;;5063884;28;20049;-76
2020/12/11 11:11:09;;;;;;;34.53;22.65;;;2.90;99.90;;;;;;5062352;28;20075;-75
2020/12/11 11:13:52;;;;;;;46.70;27.42;;;2.90;99.90;;;;;;5064841;28;20517;-74
2020/12/11 11:16:33;;;;;;;37.50;24.13;;;2.80;99.90;;;;;;5058649;28;20064;-73
2020/12/11 11:19:07;;;;;;;44.03;27.80;;;2.60;99.90;;;;;;5088214;28;20076;-74
2020/12/11 11:21:50;;;;;;;41.50;27.33;;;2.70;99.90;;;;;;5060083;28;20109;-73
2020/12/11 11:27:17;;;;;;;55.42;28.00;;;2.80;99.90;;;;;;5062034;28;20040;-74
2020/12/11 11:29:43;;;;;;;43.30;28.92;;;3.00;99.90;;;;;;5043136;28;20462;-75
2020/12/11 11:32:10;;;;;;;49.17;29.85;;;3.10;99.90;;;;;;5061367;28;20060;-75
2020/12/11 11:34:37;;;;;;;44.17;26.88;;;3.10;99.90;;;;;;5043200;28;20132;-75
2020/12/11 11:37:03;;;;;;;48.60;28.05;;;3.20;99.90;;;;;;5061264;28;20494;-74
2020/12/11 11:39:29;;;;;;;33.28;24.42;;;3.00;99.90;;;;;;5061695;28;20052;-75
2020/12/11 11:41:56;;;;;;;51.42;30.88;;;3.00;99.90;;;;;;5077639;28;20055;-75
2020/12/11 11:46:50;;;;;;;49.33;29.20;;;3.00;99.90;;;;;;5096333;28;20056;-75
2020/12/11 11:49:37;;;;;;;45.45;27.85;;;2.90;99.90;;;;;;5062390;28;20474;-76
2020/12/11 11:54:30;;;;;;;46.67;27.67;;;2.90;99.90;;;;;;5060424;28;20063;-75
2020/12/11 11:56:59;;;;;;;46.53;28.80;;;2.90;99.90;;;;;;5060739;28;20049;-75
2020/12/11 11:59:25;;;;;;;52.38;29.88;;;2.90;99.90;;;;;;5062757;28;20146;-74
2020/12/11 12:01:54;;;;;;;39.85;26.23;;;3.10;99.90;;;;;;5063158;28;20501;-73
2020/12/11 12:04:22;;;;;;;42.72;26.23;;;3.10;99.90;;;;;;5061515;28;20512;-73
2020/12/11 12:06:49;;;;;;;35.45;23.35;;;3.10;99.90;;;;;;5040789;28;20076;-73
2020/12/11 12:09:17;;;;;;;41.08;24.38;;;3.10;99.90;;;;;;5041947;28;20133;-73
2020/12/11 12:11:44;;;;;;;44.80;29.33;;;3.10;99.90;;;;;;5042226;28;20660;-74
2020/12/11 12:14:11;;;;;;;59.15;30.63;;;3.30;99.90;;;;;;5041839;28;20735;-75
2020/12/11 12:16:39;;;;;;;58.33;30.85;;;3.30;99.90;;;;;;5062030;28;20402;-73
2020/12/11 12:19:11;;;;;;;40.40;25.13;;;3.30;99.90;;;;;;5044034;28;20057;-73
2020/12/11 12:29:36;;;;;;;43.25;27.38;;;3.50;99.90;;;;;;5044432;28;20490;-74
2020/12/11 12:32:12;;;;;;;45.25;26.60;;;3.50;99.90;;;;;;5077336;28;20060;-74
2020/12/11 12:37:21;;;;;;;42.83;26.15;;;3.40;99.90;;;;;;5066493;28;20048;-74
2020/12/11 12:44:50;;;;;;;39.13;25.35;;;3.50;99.90;;;;;;5053212;28;21503;-75
2020/12/11 12:47:17;;;;;;;42.95;27.70;;;3.50;99.90;;;;;;5074722;28;20048;-74
2020/12/11 12:49:44;;;;;;;50.22;32.63;;;3.60;99.90;;;;;;5066897;28;20075;-74
2020/12/11 12:52:11;;;;;;;51.35;32.15;;;3.70;99.90;;;;;;5048338;28;20119;-74
2020/12/11 12:54:37;;;;;;;43.78;27.88;;;3.70;99.90;;;;;;5064187;28;20076;-73
2020/12/11 12:57:07;;;;;;;44.53;28.08;;;3.70;99.90;;;;;;5064939;28;20048;-74
2020/12/11 13:07:32;;;;;;;38.03;24.33;;;3.50;99.90;;;;;;5043853;28;20057;-74
2020/12/11 13:09:59;;;;;;;35.38;23.13;;;3.50;99.90;;;;;;5058153;28;20114;-75
2020/12/11 13:12:26;;;;;;;44.17;25.88;;;3.40;99.90;;;;;;5047363;28;20052;-74
2020/12/11 13:14:52;;;;;;;42.88;27.52;;;3.40;99.90;;;;;;5046605;28;20105;-74
2020/12/11 13:17:19;;;;;;;54.88;26.92;;;3.40;99.90;;;;;;5063808;28;20048;-74
2020/12/11 13:19:46;;;;;;;29.42;20.92;;;3.40;99.90;;;;;;5063362;28;20067;-74
2020/12/11 13:27:43;;;;;;;32.92;21.50;;;3.30;99.90;;;;;;5067350;28;20106;-75
2020/12/11 13:30:09;;;;;;;42.92;26.15;;;3.30;99.90;;;;;;5065652;28;20139;-74
2020/12/11 13:32:36;;;;;;;48.95;25.83;;;3.30;99.90;;;;;;5065390;28;20104;-75